Time;durP1;ratioP1;P1;durP2;ratioP2;P2;SDS_P1;SDS_P2;PMS_P1;PMS_P2;Temp;Humidity;BMP_temperature;BMP_pressure;BME280_temperature;BME280_humidity;BME280_pressure;Samples;Min_cycle;Max_cycle;Signal;HPM_P1;HPM_P2
2024/02/28 00:00:28;;;;;;;27.15;16.52;;;14.40;76.70;;;;;;4201112;28;20096;-45
2024/02/28 00:03:09;;;;;;;29.55;17.50;;;14.40;76.90;;;;;;4204919;28;20096;-47
2024/02/28 00:05:50;;;;;;;30.50;17.88;;;14.30;76.80;;;;;;4219975;28;20681;-46
2024/02/28 00:08:31;;;;;;;28.65;16.20;;;14.30;76.80;;;;;;4221765;27;20495;-47
2024/02/28 00:11:12;;;;;;;29.88;18.05;;;14.30;76.90;;;;;;4215278;27;20100;-48
2024/02/28 00:13:55;;;;;;;30.10;16.27;;;14.30;77.30;;;;;;4220934;27;20100;-45
2024/02/28 00:16:36;;;;;;;23.65;14.32;;;14.30;77.40;;;;;;4204694;28;20118;-41
2024/02/28 00:19:18;;;;;;;25.92;14.90;;;14.30;77.50;;;;;;4203224;27;20059;-41
2024/02/28 00:21:59;;;;;;;22.05;14.43;;;14.20;77.40;;;;;;4187416;28;20056;-42
2024/02/28 00:24:41;;;;;;;24.98;14.95;;;14.20;77.50;;;;;;4202262;28;20392;-41
2024/02/28 00:27:22;;;;;;;;;;;14.20;77.40;;;;;;4202950;28;20055;-41
2024/02/28 00:30:06;;;;;;;24.10;14.40;;;14.20;77.50;;;;;;4196696;27;20450;-47
2024/02/28 00:32:47;;;;;;;25.02;15.02;;;14.20;78.30;;;;;;4189547;28;20055;-49
2024/02/28 00:35:33;;;;;;;25.02;14.73;;;14.20;78.80;;;;;;4204580;28;20059;-41
2024/02/28 00:38:13;;;;;;;25.67;13.73;;;14.20;79.00;;;;;;4190433;28;20418;-42
2024/02/28 00:40:55;;;;;;;24.02;14.35;;;14.30;79.00;;;;;;4219208;28;20050;-41
2024/02/28 00:43:36;;;;;;;22.83;14.48;;;14.40;78.70;;;;;;4205806;28;20416;-41
2024/02/28 00:46:18;;;;;;;27.33;14.48;;;14.40;78.70;;;;;;4217515;27;20074;-47
2024/02/28 00:48:59;;;;;;;26.02;14.45;;;14.40;78.80;;;;;;4220641;27;20054;-42
2024/02/28 00:51:40;;;;;;;28.23;14.65;;;14.50;79.20;;;;;;4220627;28;20062;-47
2024/02/28 00:54:23;;;;;;;27.65;14.82;;;14.60;79.10;;;;;;4204167;28;20062;-47
2024/02/28 00:57:05;;;;;;;26.77;15.70;;;14.80;78.80;;;;;;4204903;28;20047;-41
2024/02/28 00:59:46;;;;;;;27.95;15.20;;;14.80;78.20;;;;;;4220145;27;20054;-48
2024/02/28 01:02:28;;;;;;;27.60;15.73;;;14.90;77.90;;;;;;4211796;27;20695;-47
2024/02/28 01:05:09;;;;;;;31.38;17.80;;;15.00;77.70;;;;;;4217380;27;20078;-49
2024/02/28 01:07:50;;;;;;;24.70;15.43;;;15.10;77.50;;;;;;4223000;27;20059;-42
2024/02/28 01:10:31;;;;;;;30.85;17.88;;;15.10;77.10;;;;;;4202710;28;20059;-50
2024/02/28 01:13:12;;;;;;;32.50;17.35;;;15.20;76.90;;;;;;4203991;28;20055;-41
2024/02/28 01:15:54;;;;;;;33.30;17.85;;;15.20;76.80;;;;;;4206651;28;20430;-47
2024/02/28 01:18:36;;;;;;;;;;;15.20;76.70;;;;;;4215659;28;20437;-47
2024/02/28 01:21:17;;;;;;;30.75;16.88;;;15.10;76.80;;;;;;4188140;28;19947;-47
2024/02/28 01:23:58;;;;;;;31.20;16.50;;;15.10;77.20;;;;;;4188385;28;20071;-42
2024/02/28 01:26:39;;;;;;;28.27;16.02;;;15.10;78.10;;;;;;4203790;28;20067;-48
2024/02/28 01:29:20;;;;;;;27.30;15.18;;;15.10;77.10;;;;;;4206430;28;20441;-48
2024/02/28 01:32:01;;;;;;;27.50;15.80;;;15.10;77.10;;;;;;4203796;28;20078;-46
2024/02/28 01:34:43;;;;;;;26.17;15.70;;;15.10;77.00;;;;;;4194286;28;20056;-47
2024/02/28 01:37:24;;;;;;;28.10;16.95;;;15.10;77.20;;;;;;4222270;27;20300;-42
2024/02/28 01:40:06;;;;;;;27.85;15.63;;;15.20;77.30;;;;;;4208242;27;20048;-42
2024/02/28 01:42:47;;;;;;;27.92;15.60;;;15.20;77.10;;;;;;4188232;28;20051;-49
2024/02/28 01:45:29;;;;;;;26.98;15.38;;;15.30;76.90;;;;;;4188904;28;20178;-41
2024/02/28 01:48:11;;;;;;;29.95;15.35;;;15.40;76.70;;;;;;4189966;28;20056;-42
2024/02/28 01:50:54;;;;;;;28.20;15.85;;;15.40;76.50;;;;;;4201353;28;20388;-49
2024/02/28 01:53:35;;;;;;;30.08;17.15;;;15.30;76.30;;;;;;4218617;28;20070;-46
2024/02/28 01:56:17;;;;;;;28.38;16.73;;;15.40;76.70;;;;;;4221037;27;20046;-46
2024/02/28 01:58:58;;;;;;;30.95;16.77;;;15.40;77.40;;;;;;4208204;28;20114;-46
2024/02/28 02:01:39;;;;;;;31.30;17.45;;;15.40;76.60;;;;;;4215644;28;20065;-46
2024/02/28 02:04:21;;;;;;;30.48;17.55;;;15.50;76.60;;;;;;4209670;27;20557;-41
2024/02/28 02:07:03;;;;;;;27.92;16.40;;;15.50;76.30;;;;;;4231552;27;20058;-46
2024/02/28 02:09:45;;;;;;;28.48;16.52;;;15.50;76.10;;;;;;4232461;27;20100;-42
2024/02/28 02:12:27;;;;;;;30.30;16.65;;;15.50;76.00;;;;;;4208209;27;20416;-41
2024/02/28 02:15:08;;;;;;;28.38;15.63;;;15.60;76.00;;;;;;4214337;28;20121;-47
2024/02/28 02:17:49;;;;;;;28.05;16.17;;;15.70;75.80;;;;;;4210970;27;20136;-41
2024/02/28 02:20:33;;;;;;;30.00;16.15;;;15.70;75.50;;;;;;4216898;28;20069;-41
2024/02/28 02:23:16;;;;;;;27.67;15.98;;;15.70;75.30;;;;;;4204569;28;20450;-42
2024/02/28 02:25:57;;;;;;;25.88;15.70;;;15.70;75.40;;;;;;4207921;28;20182;-50
2024/02/28 02:28:39;;;;;;;29.23;14.93;;;15.70;75.30;;;;;;4223109;28;20074;-41
2024/02/28 02:31:20;;;;;;;27.60;16.38;;;15.80;75.30;;;;;;4190271;28;20052;-47
2024/02/28 02:34:01;;;;;;;25.00;15.00;;;15.80;75.20;;;;;;4191282;28;20047;-48
2024/02/28 02:36:43;;;;;;;28.15;16.52;;;15.80;75.10;;;;;;4199235;28;20198;-41
2024/02/28 02:39:25;;;;;;;28.60;15.90;;;15.80;75.20;;;;;;4196182;28;20047;-49
2024/02/28 02:42:07;;;;;;;27.25;16.45;;;15.80;75.10;;;;;;4210385;28;20089;-48
2024/02/28 02:44:47;;;;;;;;;;;15.80;75.10;;;;;;4222532;27;20050;-41
2024/02/28 02:47:30;;;;;;;24.35;14.77;;;15.80;75.10;;;;;;4222956;27;19992;-41
2024/02/28 02:50:11;;;;;;;23.75;14.35;;;15.90;74.90;;;;;;4222050;28;20062;-41
2024/02/28 02:52:52;;;;;;;28.83;15.30;;;15.90;74.80;;;;;;4222505;27;20068;-44
2024/02/28 02:55:35;;;;;;;22.60;14.10;;;15.90;74.70;;;;;;4205711;28;20154;-41
2024/02/28 02:58:16;;;;;;;23.23;13.57;;;15.90;74.80;;;;;;4212973;28;20055;-46
2024/02/28 03:00:57;;;;;;;22.42;14.52;;;15.80;74.90;;;;;;4222785;28;20046;-41
2024/02/28 03:03:39;;;;;;;21.60;13.85;;;15.80;75.10;;;;;;4219995;28;20120;-48
2024/02/28 03:06:20;;;;;;;22.77;14.50;;;15.80;75.00;;;;;;4205615;28;20052;-42
2024/02/28 03:09:01;;;;;;;20.00;12.90;;;15.80;75.10;;;;;;4214342;27;20050;-46
2024/02/28 03:11:43;;;;;;;22.25;13.50;;;15.80;75.10;;;;;;4222272;27;20197;-44
2024/02/28 03:14:27;;;;;;;22.20;13.85;;;15.70;75.10;;;;;;4190553;28;20056;-42
2024/02/28 03:17:07;;;;;;;20.33;12.95;;;15.70;75.40;;;;;;4190972;28;20052;-47
2024/02/28 03:19:48;;;;;;;19.98;12.77;;;15.70;75.50;;;;;;4208575;28;20506;-42
2024/02/28 03:22:30;;;;;;;19.40;12.43;;;15.70;75.50;;;;;;4208944;28;20085;-41
2024/02/28 03:25:11;;;;;;;23.00;13.48;;;15.70;75.50;;;;;;4203929;28;20055;-48
2024/02/28 03:27:53;;;;;;;17.45;12.23;;;15.70;75.70;;;;;;4221802;28;20177;-49
2024/02/28 03:30:34;;;;;;;19.63;12.10;;;15.70;75.80;;;;;;4206526;28;20475;-47
2024/02/28 03:33:15;;;;;;;21.77;13.82;;;15.70;75.50;;;;;;4219736;27;20062;-42
2024/02/28 03:35:56;;;;;;;20.67;12.85;;;15.80;75.20;;;;;;4222249;28;20062;-48
2024/02/28 03:38:37;;;;;;;18.65;12.75;;;15.90;75.00;;;;;;4222241;27;20054;-41
2024/02/28 03:41:18;;;;;;;19.58;13.02;;;15.90;74.80;;;;;;4195486;28;20916;-48
2024/02/28 03:44:01;;;;;;;22.30;13.52;;;15.90;74.70;;;;;;4208497;27;20050;-41
2024/02/28 03:46:42;;;;;;;19.10;13.05;;;16.00;74.60;;;;;;4216042;27;20477;-41
2024/02/28 03:49:23;;;;;;;21.07;14.23;;;16.00;74.40;;;;;;4217580;27;20424;-44
2024/02/28 03:52:06;;;;;;;22.33;13.45;;;16.10;74.20;;;;;;4206285;28;20055;-42
2024/02/28 03:54:47;;;;;;;21.35;13.95;;;16.10;73.90;;;;;;4205411;28;20051;-47
2024/02/28 03:57:28;;;;;;;22.52;14.35;;;16.10;73.80;;;;;;4208357;27;20059;-42
2024/02/28 04:00:12;;;;;;;22.02;14.02;;;16.10;73.80;;;;;;4206678;28;20132;-41
2024/02/28 04:02:53;;;;;;;21.63;14.25;;;16.10;73.80;;;;;;4189211;28;20409;-47
2024/02/28 04:05:34;;;;;;;20.10;13.15;;;16.20;73.70;;;;;;4187983;28;20055;-46
2024/02/28 04:08:15;;;;;;;18.52;12.82;;;16.10;73.60;;;;;;4189761;28;20072;-48
2024/02/28 04:10:56;;;;;;;20.77;13.43;;;16.10;73.70;;;;;;4202460;28;20184;-46
2024/02/28 04:13:37;;;;;;;20.40;14.02;;;16.20;73.80;;;;;;4204559;28;20074;-42
2024/02/28 04:16:20;;;;;;;20.45;13.10;;;16.20;73.70;;;;;;4221304;27;20074;-47
2024/02/28 04:19:00;;;;;;;21.63;13.55;;;16.20;73.50;;;;;;4221051;27;20050;-41
2024/02/28 04:21:41;;;;;;;21.45;14.18;;;16.20;73.40;;;;;;4207007;28;20050;-46
2024/02/28 04:24:22;;;;;;;21.95;14.27;;;16.20;73.50;;;;;;4219148;27;20104;-42
2024/02/28 04:27:05;;;;;;;20.52;13.23;;;16.10;73.60;;;;;;4215809;28;20568;-41
2024/02/28 04:29:46;;;;;;;19.88;13.05;;;16.10;73.90;;;;;;4202721;28;20047;-41
2024/02/28 04:32:29;;;;;;;20.00;12.40;;;16.10;73.90;;;;;;4217748;27;20050;-46
2024/02/28 04:35:09;;;;;;;21.25;13.75;;;16.20;73.60;;;;;;4221169;28;20176;-41
2024/02/28 04:37:50;;;;;;;23.77;14.73;;;16.20;73.40;;;;;;4204232;28;20055;-46
2024/02/28 04:40:31;;;;;;;21.02;14.20;;;16.30;73.40;;;;;;4204388;28;20573;-41
2024/02/28 04:43:12;;;;;;;20.65;13.90;;;16.30;73.90;;;;;;4186134;28;20408;-49
2024/02/28 04:45:53;;;;;;;21.00;13.93;;;16.40;72.80;;;;;;4203476;28;20436;-46
2024/02/28 04:48:35;;;;;;;21.30;14.10;;;16.40;73.50;;;;;;4194815;28;20047;-41
2024/02/28 04:51:17;;;;;;;20.13;13.30;;;16.40;72.50;;;;;;4219503;28;20429;-47
2024/02/28 04:53:58;;;;;;;21.23;13.35;;;16.40;72.90;;;;;;4220074;28;20136;-41
2024/02/28 04:56:41;;;;;;;23.17;13.18;;;16.30;72.90;;;;;;4220602;28;20104;-41
2024/02/28 04:59:22;;;;;;;20.52;14.30;;;16.40;72.80;;;;;;4219588;27;20189;-41
2024/02/28 05:02:03;;;;;;;21.60;13.80;;;16.40;72.70;;;;;;4205175;28;20046;-43
2024/02/28 05:04:45;;;;;;;;;;;16.40;72.60;;;;;;4204011;28;20050;-47
2024/02/28 05:07:26;;;;;;;20.33;13.45;;;16.40;72.70;;;;;;4219200;27;19976;-41
2024/02/28 05:10:08;;;;;;;22.20;14.00;;;16.40;72.50;;;;;;4204030;28;20499;-39
2024/02/28 05:12:50;;;;;;;22.83;13.68;;;16.50;72.30;;;;;;4194337;28;20055;-39
2024/02/28 05:15:31;;;;;;;23.38;13.73;;;16.50;72.10;;;;;;4197956;28;20051;-45
2024/02/28 05:18:11;;;;;;;23.83;14.30;;;16.50;71.90;;;;;;4190245;28;20051;-39
2024/02/28 05:20:54;;;;;;;21.95;14.15;;;16.50;71.90;;;;;;4203949;28;20055;-42
2024/02/28 05:23:35;;;;;;;21.50;13.55;;;16.50;72.00;;;;;;4208441;27;20181;-46
2024/02/28 05:26:16;;;;;;;21.85;13.73;;;16.40;72.20;;;;;;4207685;27;20062;-46
2024/02/28 05:28:58;;;;;;;22.55;14.52;;;16.40;72.40;;;;;;4203976;28;20050;-47
2024/02/28 05:31:38;;;;;;;21.90;14.70;;;16.40;72.50;;;;;;4202522;28;20100;-45
2024/02/28 05:34:19;;;;;;;22.60;14.20;;;16.40;72.60;;;;;;4204739;28;20456;-40
2024/02/28 05:37:02;;;;;;;22.30;13.95;;;16.30;72.80;;;;;;4202119;28;20090;-39
2024/02/28 05:39:43;;;;;;;21.42;13.90;;;16.20;72.90;;;;;;4220297;28;20268;-47
2024/02/28 05:42:25;;;;;;;20.83;13.63;;;16.10;73.30;;;;;;4213150;28;20152;-40
2024/02/28 05:45:06;;;;;;;21.75;13.98;;;16.10;73.60;;;;;;4203623;28;20124;-40
2024/02/28 05:47:47;;;;;;;22.80;14.63;;;16.20;73.60;;;;;;4220069;28;20399;-44
2024/02/28 05:50:29;;;;;;;20.80;13.77;;;16.20;73.40;;;;;;4205489;27;20446;-46
2024/02/28 05:53:12;;;;;;;20.95;13.98;;;16.30;73.50;;;;;;4237137;27;20132;-39
2024/02/28 05:55:53;;;;;;;23.08;14.07;;;16.30;73.20;;;;;;4229008;27;20380;-44
2024/02/28 05:58:34;;;;;;;22.63;14.85;;;16.30;72.90;;;;;;4192877;28;20047;-48
2024/02/28 06:01:17;;;;;;;19.92;13.23;;;16.30;72.70;;;;;;4203654;28;20062;-45
2024/02/28 06:03:58;;;;;;;25.10;15.23;;;16.30;72.80;;;;;;4203545;28;20142;-45
2024/02/28 06:06:39;;;;;;;22.98;14.57;;;16.30;72.90;;;;;;4203733;28;20550;-40
2024/02/28 06:09:22;;;;;;;;;;;16.30;73.10;;;;;;4204045;28;20054;-39
2024/02/28 06:12:03;;;;;;;23.67;14.23;;;16.30;73.10;;;;;;4205089;28;19927;-44
2024/02/28 06:14:44;;;;;;;23.73;14.27;;;16.30;73.20;;;;;;4217079;28;20116;-44
2024/02/28 06:17:25;;;;;;;22.67;14.57;;;16.20;74.00;;;;;;4202983;28;20074;-45
2024/02/28 06:20:08;;;;;;;22.30;13.93;;;16.20;73.20;;;;;;4187927;28;20059;-46
2024/02/28 06:22:49;;;;;;;22.25;14.73;;;16.20;73.10;;;;;;4196763;28;20056;-41
2024/02/28 06:25:34;;;;;;;25.17;14.40;;;16.20;72.90;;;;;;4200806;28;20774;-47
2024/02/28 06:28:14;;;;;;;22.25;14.57;;;16.20;72.60;;;;;;4213063;27;20058;-41
2024/02/28 06:30:55;;;;;;;23.95;14.55;;;16.20;72.90;;;;;;4211739;28;20059;-41
2024/02/28 06:33:36;;;;;;;21.90;14.65;;;16.20;73.20;;;;;;4219619;28;20053;-46
2024/02/28 06:36:17;;;;;;;26.08;15.48;;;16.20;73.20;;;;;;4202778;28;20396;-47
2024/02/28 06:38:59;;;;;;;23.35;13.30;;;16.20;73.20;;;;;;4211313;28;20050;-46
2024/02/28 06:41:41;;;;;;;;;;;16.10;73.40;;;;;;4218868;28;20062;-47
2024/02/28 06:44:22;;;;;;;23.08;14.48;;;16.10;74.30;;;;;;4199761;28;19931;-46
2024/02/28 06:47:03;;;;;;;20.77;13.02;;;16.10;74.70;;;;;;4194651;28;20117;-42
2024/02/28 06:49:45;;;;;;;25.10;14.15;;;16.20;74.40;;;;;;4198608;28;20216;-47
2024/02/28 06:52:25;;;;;;;24.17;15.07;;;16.20;74.00;;;;;;4193579;28;21446;-50
2024/02/28 06:55:10;;;;;;;24.75;15.35;;;16.20;73.80;;;;;;4194417;28;20397;-49
2024/02/28 06:57:52;;;;;;;24.23;14.95;;;16.30;73.80;;;;;;4206486;28;20047;-46
2024/02/28 07:00:33;;;;;;;26.13;15.65;;;16.30;73.40;;;;;;4205658;28;20078;-45
2024/02/28 07:03:15;;;;;;;25.00;15.38;;;16.30;73.20;;;;;;4205373;28;20495;-46
2024/02/28 07:05:56;;;;;;;26.88;15.27;;;16.30;73.10;;;;;;4214289;28;20376;-41
2024/02/28 07:08:37;;;;;;;23.95;14.95;;;16.30;73.10;;;;;;4205739;28;20054;-47
2024/02/28 07:11:18;;;;;;;23.67;15.05;;;16.30;73.20;;;;;;4194070;28;20055;-48
2024/02/28 07:14:02;;;;;;;23.70;15.10;;;16.30;73.40;;;;;;4204322;28;20130;-41
2024/02/28 07:16:43;;;;;;;27.02;15.32;;;16.20;73.50;;;;;;4205107;28;20082;-45
2024/02/28 07:19:24;;;;;;;27.77;15.88;;;16.20;73.80;;;;;;4218642;27;20481;-41
2024/02/28 07:22:06;;;;;;;27.05;14.85;;;16.20;74.00;;;;;;4216243;27;20058;-46
2024/02/28 07:24:47;;;;;;;25.83;14.90;;;16.20;73.80;;;;;;4207437;27;20139;-42
2024/02/28 07:27:29;;;;;;;26.45;14.45;;;16.30;73.50;;;;;;4209039;28;20076;-44
2024/02/28 07:30:12;;;;;;;26.70;15.70;;;16.30;73.10;;;;;;4222642;28;20050;-47
2024/02/28 07:32:53;;;;;;;25.02;15.18;;;16.40;72.00;;;;;;4213125;28;20055;-45
2024/02/28 07:35:44;;;;;;;26.30;15.75;;;16.40;71.20;;;;;;4188088;28;20523;-44
2024/02/28 07:38:27;;;;;;;25.40;15.18;;;16.40;70.80;;;;;;4198417;28;20177;-43
2024/02/28 07:41:08;;;;;;;24.83;15.48;;;16.40;70.40;;;;;;4204425;28;20079;-45
2024/02/28 07:43:49;;;;;;;26.38;16.55;;;16.30;70.20;;;;;;4190539;28;20534;-42
2024/02/28 07:46:32;;;;;;;25.50;14.68;;;16.30;70.40;;;;;;4189805;28;20089;-47
2024/02/28 07:49:13;;;;;;;27.65;16.60;;;16.30;70.30;;;;;;4204100;28;20456;-42
2024/02/28 07:51:55;;;;;;;26.98;14.80;;;16.30;70.10;;;;;;4222780;27;20053;-45
2024/02/28 07:54:37;;;;;;;25.52;15.80;;;16.20;70.00;;;;;;4187350;28;20079;-45
2024/02/28 07:57:18;;;;;;;24.00;14.90;;;16.20;70.10;;;;;;4189639;28;20129;-44
2024/02/28 07:59:59;;;;;;;27.35;15.70;;;16.20;70.90;;;;;;4189172;28;20060;-42
2024/02/28 08:02:45;;;;;;;22.77;15.98;;;16.10;69.90;;;;;;4193186;28;20063;-45
2024/02/28 08:05:25;;;;;;;25.60;14.75;;;16.10;70.10;;;;;;4212531;27;20094;-43
2024/02/28 08:08:07;;;;;;;23.08;15.30;;;16.10;70.40;;;;;;4220309;27;20058;-41
2024/02/28 08:10:48;;;;;;;29.52;14.82;;;16.10;70.50;;;;;;4210976;28;20416;-41
2024/02/28 08:13:32;;;;;;;26.60;15.98;;;16.10;70.50;;;;;;4204525;28;20055;-45
2024/02/28 08:16:13;;;;;;;23.30;14.60;;;16.20;70.30;;;;;;4194802;27;20055;-42
2024/02/28 08:18:57;;;;;;;23.23;14.30;;;16.20;69.90;;;;;;4207071;27;20544;-44
2024/02/28 08:21:38;;;;;;;24.77;16.33;;;16.20;69.70;;;;;;4213908;27;20065;-44
2024/02/28 08:24:19;;;;;;;23.70;14.70;;;16.20;69.70;;;;;;4225804;27;20050;-44
2024/02/28 08:27:00;;;;;;;25.52;14.40;;;16.20;69.80;;;;;;4238789;27;20065;-42
2024/02/28 08:29:43;;;;;;;24.45;15.73;;;16.20;69.60;;;;;;4222997;27;20196;-45
2024/02/28 08:32:24;;;;;;;24.67;14.85;;;16.10;69.30;;;;;;4202856;28;20067;-46
2024/02/28 08:35:10;;;;;;;24.38;13.77;;;16.10;69.00;;;;;;4219634;28;20051;-44
2024/02/28 08:37:51;;;;;;;24.77;14.60;;;16.10;68.60;;;;;;4219450;27;20050;-44
2024/02/28 08:40:32;;;;;;;26.60;14.95;;;16.10;67.80;;;;;;4204665;28;20059;-41
2024/02/28 08:43:13;;;;;;;24.65;13.38;;;16.00;67.30;;;;;;4190200;28;20059;-43
2024/02/28 08:45:55;;;;;;;;;;;16.10;67.30;;;;;;4204111;28;20561;-42
2024/02/28 08:48:37;;;;;;;;;;;16.10;66.50;;;;;;4204500;27;20557;-43
2024/02/28 08:51:20;;;;;;;26.60;14.27;;;16.20;65.80;;;;;;4204913;28;19935;-44
2024/02/28 08:54:02;;;;;;;24.05;14.20;;;16.20;65.00;;;;;;4179175;28;20101;-43
2024/02/28 08:56:43;;;;;;;24.67;14.20;;;16.20;64.90;;;;;;4209303;27;20533;-41
2024/02/28 08:59:29;;;;;;;23.70;14.70;;;16.10;64.80;;;;;;4218083;27;20051;-44
2024/02/28 09:02:11;;;;;;;22.75;12.90;;;16.10;64.90;;;;;;4219593;27;20407;-44
2024/02/28 09:04:56;;;;;;;28.73;15.25;;;16.20;64.80;;;;;;4236845;27;20078;-43
2024/02/28 09:07:38;;;;;;;22.25;12.35;;;16.30;64.20;;;;;;4237568;27;20050;-42
2024/02/28 09:10:23;;;;;;;22.02;14.13;;;16.30;63.70;;;;;;4231969;27;20521;-42
2024/02/28 09:13:06;;;;;;;22.38;14.70;;;16.40;63.00;;;;;;4188772;28;20582;-43
2024/02/28 09:15:47;;;;;;;23.10;14.00;;;16.30;63.00;;;;;;4199117;28;20081;-42
2024/02/28 09:18:31;;;;;;;23.38;13.73;;;16.30;63.00;;;;;;4212103;27;20627;-45
2024/02/28 09:21:12;;;;;;;23.33;14.15;;;16.30;62.90;;;;;;4191339;28;20051;-43
2024/02/28 09:23:54;;;;;;;23.90;15.27;;;16.30;62.60;;;;;;4189628;28;20178;-42
2024/02/28 09:26:39;;;;;;;22.55;12.95;;;16.30;62.30;;;;;;4203358;28;20066;-43
2024/02/28 09:29:21;;;;;;;24.38;14.95;;;16.30;62.40;;;;;;4203585;28;20063;-42
2024/02/28 09:32:02;;;;;;;25.98;15.23;;;16.20;62.50;;;;;;4201330;28;20047;-43
2024/02/28 09:34:43;;;;;;;24.02;15.52;;;16.20;62.60;;;;;;4220160;27;20059;-43
2024/02/28 09:37:25;;;;;;;23.95;13.65;;;16.10;62.50;;;;;;4207049;28;20692;-42
2024/02/28 09:40:10;;;;;;;23.63;15.45;;;16.00;62.50;;;;;;4202845;28;20059;-43
2024/02/28 09:42:57;;;;;;;23.75;14.50;;;15.90;62.70;;;;;;4219075;28;20204;-41
2024/02/28 09:45:40;;;;;;;26.77;14.32;;;15.80;62.90;;;;;;4219029;27;20100;-47
2024/02/28 09:48:23;;;;;;;26.20;14.68;;;15.90;64.00;;;;;;4203482;28;20059;-46
2024/02/28 09:51:05;;;;;;;23.98;13.32;;;15.90;62.80;;;;;;4204001;28;20125;-42
2024/02/28 09:53:46;;;;;;;27.85;14.27;;;15.90;62.70;;;;;;4203034;28;20055;-42
2024/02/28 09:56:29;;;;;;;15.93;9.70;;;15.90;63.00;;;;;;4233551;27;20410;-43
2024/02/28 09:59:12;;;;;;;24.05;14.95;;;15.90;62.80;;;;;;4237612;27;20487;-44
2024/02/28 10:01:57;;;;;;;21.60;10.50;;;16.00;62.50;;;;;;4236646;27;20391;-42
2024/02/28 10:04:38;;;;;;;25.35;15.10;;;16.00;62.30;;;;;;4227488;27;20047;-43
2024/02/28 10:07:19;;;;;;;22.75;13.82;;;16.00;62.20;;;;;;4203225;28;20055;-43
2024/02/28 10:10:03;;;;;;;25.02;14.43;;;16.00;62.10;;;;;;4185532;28;20056;-47
2024/02/28 10:12:46;;;;;;;26.33;14.13;;;16.10;62.20;;;;;;4188089;27;20136;-41
2024/02/28 10:15:27;;;;;;;22.55;14.65;;;16.10;62.10;;;;;;4187298;28;20512;-41
2024/02/28 10:18:08;;;;;;;21.73;13.13;;;16.20;62.50;;;;;;4205762;27;20047;-46
2024/02/28 10:20:49;;;;;;;28.77;16.05;;;16.10;62.70;;;;;;4239723;27;20058;-41
2024/02/28 10:23:31;;;;;;;;;;;16.10;63.10;;;;;;4220313;27;20380;-43
2024/02/28 10:26:13;;;;;;;24.55;12.85;;;16.00;63.30;;;;;;4205990;28;19931;-41
2024/02/28 10:28:56;;;;;;;27.08;15.77;;;15.90;63.50;;;;;;4222152;27;20145;-43
2024/02/28 10:31:37;;;;;;;23.30;13.75;;;15.90;63.40;;;;;;4191068;28;20059;-43
2024/02/28 10:34:18;;;;;;;23.60;14.52;;;15.90;63.20;;;;;;4215820;27;20059;-42
2024/02/28 10:37:01;;;;;;;22.65;14.02;;;15.90;63.20;;;;;;4190079;28;20109;-41
2024/02/28 10:39:43;;;;;;;26.88;15.13;;;15.90;63.40;;;;;;4218371;27;20054;-40
2024/02/28 10:42:27;;;;;;;25.60;14.20;;;15.90;63.00;;;;;;4218642;28;21000;-41
2024/02/28 10:45:10;;;;;;;24.38;13.85;;;15.90;62.90;;;;;;4221362;27;20568;-41
2024/02/28 10:47:58;;;;;;;22.80;14.38;;;15.90;62.80;;;;;;4193646;28;20153;-41
2024/02/28 10:50:40;;;;;;;25.13;15.50;;;15.90;62.90;;;;;;4195804;28;20488;-42
2024/02/28 10:53:24;;;;;;;23.38;13.77;;;15.90;63.30;;;;;;4192125;28;20722;-46
2024/02/28 10:56:07;;;;;;;21.15;13.35;;;15.80;63.60;;;;;;4190531;28;20071;-45
2024/02/28 10:58:53;;;;;;;25.80;14.15;;;15.80;64.00;;;;;;4205063;28;20199;-45
2024/02/28 11:01:36;;;;;;;24.42;13.70;;;15.80;64.00;;;;;;4204779;28;20499;-42
2024/02/28 11:04:18;;;;;;;23.17;12.90;;;15.70;64.10;;;;;;4191146;28;20130;-46
2024/02/28 11:06:59;;;;;;;22.27;13.00;;;15.70;64.40;;;;;;4205424;28;20411;-41
2024/02/28 11:09:42;;;;;;;;;;;15.70;64.40;;;;;;4207819;28;20051;-41
2024/02/28 11:12:27;;;;;;;22.65;13.75;;;15.70;64.40;;;;;;4204297;28;19927;-41
2024/02/28 11:15:18;;;;;;;21.00;13.07;;;15.60;64.50;;;;;;4225364;27;20472;-41
2024/02/28 11:18:10;;;;;;;19.77;11.27;;;15.60;64.50;;;;;;4236982;27;21670;-43
2024/02/28 11:20:51;;;;;;;23.38;10.77;;;15.60;64.60;;;;;;4186460;28;20063;-41
2024/02/28 11:23:37;;;;;;;22.33;14.35;;;15.50;64.50;;;;;;4203885;28;20098;-41
2024/02/28 11:26:20;;;;;;;20.42;12.35;;;15.50;64.40;;;;;;4189011;28;20488;-42
2024/02/28 11:29:01;;;;;;;22.13;13.63;;;15.50;64.70;;;;;;4190253;28;20055;-41
2024/02/28 11:31:42;;;;;;;23.25;13.93;;;15.50;65.00;;;;;;4192966;28;20069;-41
2024/02/28 11:34:25;;;;;;;23.60;15.02;;;15.50;65.20;;;;;;4188385;28;20191;-45
2024/02/28 11:37:07;;;;;;;22.55;14.43;;;15.60;65.30;;;;;;4190427;28;20055;-41
2024/02/28 11:39:48;;;;;;;21.67;12.10;;;15.50;65.20;;;;;;4188559;28;20043;-45
2024/02/28 11:42:29;;;;;;;24.45;14.68;;;15.60;65.30;;;;;;4188551;28;20071;-45
2024/02/28 11:45:11;;;;;;;18.92;13.05;;;15.50;65.30;;;;;;4213744;27;20054;-45
2024/02/28 11:47:52;;;;;;;20.35;13.27;;;15.50;65.40;;;;;;4218291;27;20047;-46
2024/02/28 11:50:34;;;;;;;19.83;12.38;;;15.50;65.60;;;;;;4214925;27;20058;-42
2024/02/28 11:53:15;;;;;;;21.80;13.05;;;15.40;65.90;;;;;;4204009;27;20401;-46
2024/02/28 11:55:56;;;;;;;23.10;13.60;;;15.40;65.90;;;;;;4207323;27;20495;-41
2024/02/28 11:58:38;;;;;;;;;;;15.30;66.90;;;;;;4210589;27;20047;-41
2024/02/28 12:01:18;;;;;;;16.50;9.13;;;15.30;66.10;;;;;;4203088;27;19962;-45
2024/02/28 12:03:59;;;;;;;22.25;14.10;;;15.20;66.10;;;;;;4219321;27;20120;-41
2024/02/28 12:06:42;;;;;;;20.30;12.93;;;15.20;66.20;;;;;;4220515;27;20058;-45
2024/02/28 12:09:23;;;;;;;18.40;10.38;;;15.10;66.20;;;;;;4203176;27;20408;-41
2024/02/28 12:12:09;;;;;;;23.80;14.77;;;15.10;66.50;;;;;;4204392;27;20050;-41
2024/02/28 12:14:50;;;;;;;22.40;12.55;;;15.00;66.60;;;;;;4189154;28;20153;-45
2024/02/28 12:17:30;;;;;;;24.67;12.70;;;15.00;66.60;;;;;;4218890;27;20200;-45
2024/02/28 12:20:12;;;;;;;24.95;15.45;;;15.10;66.70;;;;;;4220084;28;20046;-41
2024/02/28 12:22:55;;;;;;;20.92;12.05;;;15.00;66.70;;;;;;4207025;28;20097;-41
2024/02/28 12:25:36;;;;;;;25.92;15.40;;;15.00;66.70;;;;;;4206195;28;20051;-45
2024/02/28 12:28:17;;;;;;;23.27;15.02;;;15.00;66.80;;;;;;4204395;28;20063;-45
2024/02/28 12:30:57;;;;;;;23.90;15.68;;;15.00;66.80;;;;;;4219603;28;20360;-41
2024/02/28 12:33:39;;;;;;;26.35;16.63;;;14.90;66.90;;;;;;4199775;28;20063;-47
2024/02/28 12:36:20;;;;;;;22.77;14.73;;;14.90;67.00;;;;;;4186763;28;20178;-41
2024/02/28 12:39:05;;;;;;;23.02;13.95;;;14.90;67.30;;;;;;4219247;28;20169;-46
2024/02/28 12:41:48;;;;;;;22.33;14.60;;;14.90;67.60;;;;;;4204317;28;20408;-41
2024/02/28 12:44:29;;;;;;;23.17;14.38;;;15.00;67.50;;;;;;4204181;28;20442;-45
2024/02/28 12:47:10;;;;;;;23.80;14.48;;;15.10;67.50;;;;;;4215774;27;20100;-45
2024/02/28 12:49:51;;;;;;;;;;;15.10;67.30;;;;;;4189242;28;20599;-41
2024/02/28 12:52:33;;;;;;;23.02;14.98;;;15.10;67.00;;;;;;4175678;28;19946;-41
2024/02/28 12:55:16;;;;;;;18.33;10.85;;;15.10;66.90;;;;;;4190525;28;20071;-44
2024/02/28 12:57:59;;;;;;;22.58;13.35;;;15.20;67.20;;;;;;4194341;28;20074;-44
2024/02/28 13:00:40;;;;;;;23.38;15.05;;;15.20;67.10;;;;;;4207570;28;20403;-41
2024/02/28 13:03:21;;;;;;;20.80;15.23;;;15.20;66.90;;;;;;4220564;27;20058;-41
2024/02/28 13:06:03;;;;;;;24.83;14.45;;;15.30;67.00;;;;;;4237437;27;20399;-44
2024/02/28 13:08:45;;;;;;;21.63;13.52;;;15.40;66.90;;;;;;4213265;27;20058;-45
2024/02/28 13:11:28;;;;;;;21.33;13.93;;;15.40;66.70;;;;;;4205103;28;20071;-48
2024/02/28 13:14:10;;;;;;;20.42;14.43;;;15.50;66.50;;;;;;4203660;28;20051;-45
2024/02/28 13:16:53;;;;;;;21.42;15.30;;;15.50;66.30;;;;;;4201772;28;20059;-45
2024/02/28 13:19:35;;;;;;;20.63;14.32;;;15.50;66.10;;;;;;4207228;27;20134;-46
2024/02/28 13:22:16;;;;;;;;;;;15.50;66.00;;;;;;4235913;27;20050;-40
2024/02/28 13:24:57;;;;;;;24.50;14.47;;;15.60;66.10;;;;;;4236261;27;20083;-41
2024/02/28 13:27:39;;;;;;;20.23;13.77;;;15.60;66.20;;;;;;4231500;27;20091;-41
2024/02/28 13:30:20;;;;;;;19.58;13.13;;;15.60;66.50;;;;;;4203583;28;20300;-41
2024/02/28 13:33:01;;;;;;;19.48;13.98;;;15.60;67.00;;;;;;4201848;27;20059;-46
2024/02/28 13:35:42;;;;;;;22.20;15.40;;;15.60;67.30;;;;;;4203786;28;20511;-44
2024/02/28 13:38:24;;;;;;;22.98;15.13;;;15.60;67.50;;;;;;4186713;27;20048;-45
2024/02/28 13:41:06;;;;;;;20.88;14.02;;;15.50;67.70;;;;;;4161158;28;20055;-45
2024/02/28 13:43:49;;;;;;;21.75;15.25;;;15.50;67.90;;;;;;4177760;28;20055;-44